Oklahoma City, OK (73102)

5:38 PM CST on January 30, 2015 (GMT -0600)
Heritage Hills | Change Station
CLOSE
Current Station
Personal Weather Station
Location: Oklahoma City, OK
Elevation: 1280 ft
Nearby Weather Stations

Elev 1280 ft 35.48 °N, 97.52 °W | Updated 8 minutes ago

Overcast
Overcast
45.1 °F
Feels Like 45 °F
N
0.0
Wind Variable Wind from ENE
Gusts 3.0 mph

Today
High -- | Low -- °F
--% Chance of Precip.
Yesterday
High -- | Low -- °F
Precip. -- in
7:31 AM 5:55 PM
Waxing Gibbous, 86% visible
Pressure 30.37 in
Visibility 10.0 miles
Clouds Overcast 12000 ft
Windchill 45 °F
Dew Point 27 °F
Humidity 50%
Rainfall 0.00 in
Snow Depth Not available.
UV 0 out of 12
Pollen 2.80 out of 12
Air Quality Not available.
Flu Activity Not available.
METAR KOKC 302252Z 03006KT 10SM OVC120 08/M05 A3037

More Conditions Fewer Conditions

Pressure 30.37 in
Visibility 10.0 miles
Clouds Overcast 12000 ft
Windchill 45 °F
Dew Point 27 °F
Humidity 50%
Rainfall 0.00 in
Snow Depth Not available.
UV 0 out of 12
Pollen 2.80 out of 12
Air Quality Not available.
Flu Activity Not available.
METAR KOKC 302252Z 03006KT 10SM OVC120 08/M05 A3037

More Conditions Fewer Conditions

10-Day Weather Forecast

Almanac

Astronomy

Jan. 30, 2015 Rise Set
Actual Time
Civil Twilight
Nautical Twilight
Astronomical Twilight
Moon
Length of Visible Light
Length of Day
Tomorrow will be .
, % of the Moon is Illuminated

Today's Extremes

State Highs State Lows

Community

WunderPhotos

Upload Photos

1,791,932 photos uploaded!

WunderBlogs® & News

Nearby

Air Quality

  Air Quality AQ Index Pollutant
Not available.

Snow Depth

Station Depth Elevation

Earthquake Activity

City Distance Mag. Time & Date
Minimum magnitude displayed is 2.5.

Coastal Water Temperatures

Place Temperature

Nearby Weather Stations